createdAt,value
2022-12-31T00:02:22.707Z,96521.72
2022-12-31T00:04:49.536Z,96526.94
2022-12-31T00:07:16.307Z,96527.75
2022-12-31T00:09:43.159Z,96525.72
2022-12-31T00:12:10.009Z,96523.66
2022-12-31T00:14:36.930Z,96543.22
2022-12-31T00:17:03.729Z,96538.44
2022-12-31T00:19:30.611Z,96550.53
2022-12-31T00:21:57.372Z,96548.50
2022-12-31T00:24:24.396Z,96562.81
2022-12-31T00:26:51.137Z,96567.81
2022-12-31T00:29:17.891Z,96561.22
2022-12-31T00:31:44.651Z,96562.72
2022-12-31T00:34:11.405Z,96562.34
2022-12-31T00:36:39.483Z,96571.94
2022-12-31T00:39:08.235Z,96568.22
2022-12-31T00:41:35.653Z,96567.63
2022-12-31T00:44:02.830Z,96571.81
2022-12-31T00:46:29.828Z,96584.13
2022-12-31T00:48:56.679Z,96590.34
2022-12-31T00:51:27.218Z,96601.78
2022-12-31T00:53:55.369Z,96603.06
2022-12-31T00:56:26.462Z,96592.09
2022-12-31T00:58:53.439Z,96598.59
2022-12-31T01:01:24.995Z,96604.84
2022-12-31T01:03:56.161Z,96595.69
2022-12-31T01:06:22.977Z,96611.53
2022-12-31T01:08:51.027Z,96601.75
2022-12-31T01:11:18.964Z,96616.25
2022-12-31T01:13:48.493Z,96620.19
2022-12-31T01:16:16.247Z,96633.03
2022-12-31T01:18:43.248Z,96630.53
2022-12-31T01:21:12.591Z,96631.75
2022-12-31T01:23:40.084Z,96639.84
2022-12-31T01:26:10.400Z,96643.56
2022-12-31T01:28:37.181Z,96647.94
2022-12-31T01:31:07.313Z,96630.09
2022-12-31T01:33:35.166Z,96662.31
2022-12-31T01:36:08.777Z,96650.84
2022-12-31T01:38:35.803Z,96646.75
2022-12-31T01:41:03.505Z,96649.25
2022-12-31T01:43:55.282Z,96652.91
2022-12-31T01:46:52.514Z,96651.03
2022-12-31T01:49:44.262Z,96649.19
2022-12-31T01:52:42.661Z,96647.13
2022-12-31T01:55:19.551Z,96647.56
2022-12-31T01:57:50.195Z,96655.09
2022-12-31T02:00:17.749Z,96655.56
2022-12-31T02:02:44.998Z,96666.84
2022-12-31T02:05:22.942Z,96657.22
2022-12-31T02:07:50.053Z,96667.28
2022-12-31T02:10:16.932Z,96667.75
2022-12-31T02:12:43.920Z,96665.69
2022-12-31T02:15:11.338Z,96671.75
2022-12-31T02:17:59.025Z,96664.03
2022-12-31T02:21:05.004Z,96663.81
2022-12-31T02:24:21.549Z,96674.47
2022-12-31T02:27:13.494Z,96676.75
2022-12-31T02:30:13.451Z,96680.31
2022-12-31T02:32:50.956Z,96675.09
2022-12-31T02:35:45.223Z,96675.34
2022-12-31T02:38:20.016Z,96668.38
2022-12-31T02:40:47.732Z,96670.50
2022-12-31T02:43:14.797Z,96670.50
2022-12-31T02:45:48.289Z,96674.22
2022-12-31T02:48:37.584Z,96679.44
2022-12-31T02:51:28.130Z,96670.66
2022-12-31T02:54:13.691Z,96681.47
2022-12-31T02:57:41.113Z,96671.91
2022-12-31T03:00:32.476Z,96669.66
2022-12-31T03:03:01.116Z,96669.66
2022-12-31T03:05:31.082Z,96678.75
2022-12-31T03:07:57.868Z,96661.84
2022-12-31T03:10:24.632Z,96666.13
2022-12-31T03:12:51.763Z,96667.13
2022-12-31T03:15:29.088Z,96671.22
2022-12-31T03:18:12.620Z,96673.09
2022-12-31T03:21:08.013Z,96686.63
2022-12-31T03:23:50.023Z,96694.91
2022-12-31T03:26:16.806Z,96691.66
2022-12-31T03:28:47.601Z,96694.56
2022-12-31T03:31:16.187Z,96688.13
2022-12-31T03:33:43.085Z,96692.47
2022-12-31T03:36:14.023Z,96691.66
2022-12-31T03:38:41.433Z,96694.81
2022-12-31T03:41:10.939Z,96695.66
2022-12-31T03:43:37.890Z,96690.88
2022-12-31T03:46:04.820Z,96695.06
2022-12-31T03:48:31.629Z,96702.13
2022-12-31T03:50:58.400Z,96686.59
2022-12-31T03:53:25.189Z,96700.72
2022-12-31T03:55:55.346Z,96701.75
2022-12-31T03:58:25.297Z,96703.88
2022-12-31T04:00:52.036Z,96705.66
2022-12-31T04:03:18.921Z,96702.69
2022-12-31T04:05:52.425Z,96688.34
2022-12-31T04:08:19.212Z,96692.31
2022-12-31T04:10:46.041Z,96698.38
2022-12-31T04:13:12.804Z,96702.72
2022-12-31T04:15:39.554Z,96692.78
2022-12-31T04:18:06.374Z,96678.22
2022-12-31T04:20:33.215Z,96696.13
2022-12-31T04:23:00.015Z,96695.09
2022-12-31T04:25:26.864Z,96693.22
2022-12-31T04:27:53.616Z,96705.72
2022-12-31T04:30:20.364Z,96697.41
2022-12-31T04:32:47.152Z,96710.72
2022-12-31T04:35:14.011Z,96708.00
2022-12-31T04:37:40.778Z,96709.88
2022-12-31T04:40:09.121Z,96709.06
2022-12-31T04:42:36.307Z,96714.47
2022-12-31T04:45:04.540Z,96710.94
2022-12-31T04:47:31.386Z,96703.66
2022-12-31T04:49:58.299Z,96708.22
2022-12-31T04:52:25.061Z,96715.66
2022-12-31T04:54:51.841Z,96717.38
2022-12-31T04:57:18.643Z,96712.78
2022-12-31T04:59:45.447Z,96720.69
2022-12-31T05:02:12.409Z,96732.34
2022-12-31T05:04:39.284Z,96731.34
2022-12-31T05:07:06.171Z,96734.69
2022-12-31T05:09:32.987Z,96739.91
2022-12-31T05:12:00.011Z,96741.41
2022-12-31T05:14:26.815Z,96741.19
2022-12-31T05:16:53.806Z,96738.31
2022-12-31T05:19:20.759Z,96740.00
2022-12-31T05:22:07.566Z,96742.50
2022-12-31T05:24:34.359Z,96756.88
2022-12-31T05:27:01.162Z,96750.44
2022-12-31T05:29:27.953Z,96756.31
2022-12-31T05:31:54.730Z,96743.63
2022-12-31T05:34:21.510Z,96743.41
2022-12-31T05:36:48.283Z,96749.47
2022-12-31T05:39:15.091Z,96735.13
2022-12-31T05:41:41.881Z,96741.16
2022-12-31T05:44:10.417Z,96747.41
2022-12-31T05:46:37.191Z,96748.06
2022-12-31T05:49:03.952Z,96757.00
2022-12-31T05:51:30.719Z,96742.44
2022-12-31T05:53:57.497Z,96759.50
2022-12-31T05:56:24.273Z,96772.19
2022-12-31T05:58:51.173Z,96773.88
2022-12-31T06:01:17.987Z,96781.81
2022-12-31T06:03:45.407Z,96777.22
2022-12-31T06:06:12.291Z,96793.63
2022-12-31T06:08:39.089Z,96788.22
2022-12-31T06:11:06.004Z,96779.28
2022-12-31T06:13:32.780Z,96781.97
2022-12-31T06:16:08.915Z,96795.91
2022-12-31T06:18:35.733Z,96795.50
2022-12-31T06:21:04.050Z,96801.13
2022-12-31T06:23:30.856Z,96790.94
2022-12-31T06:26:01.780Z,96808.41
2022-12-31T06:28:28.563Z,96821.50
2022-12-31T06:31:01.262Z,96809.03
2022-12-31T06:33:28.353Z,96815.94
2022-12-31T06:36:01.182Z,96801.13
2022-12-31T06:38:30.849Z,96796.34
2022-12-31T06:40:57.613Z,96799.88
2022-12-31T06:43:24.541Z,96795.50
2022-12-31T06:45:51.312Z,96791.97
2022-12-31T06:48:18.635Z,96800.06
2022-12-31T06:50:46.226Z,96799.25
2022-12-31T06:53:13.018Z,96784.06
2022-12-31T06:55:40.185Z,96791.13
2022-12-31T06:58:12.109Z,96779.03
2022-12-31T07:00:48.659Z,96785.00
2022-12-31T07:03:38.598Z,96788.91
2022-12-31T07:06:10.265Z,96796.53
2022-12-31T07:08:45.322Z,96800.31
2022-12-31T07:11:27.160Z,96802.75
2022-12-31T07:14:06.970Z,96806.31
2022-12-31T07:16:55.286Z,96813.09
2022-12-31T07:19:57.683Z,96809.75
2022-12-31T07:22:25.211Z,96822.03
2022-12-31T07:24:52.300Z,96832.69
2022-12-31T07:27:44.482Z,96830.72
2022-12-31T07:30:14.248Z,96838.94
2022-12-31T07:32:43.893Z,96835.00
2022-12-31T07:35:35.931Z,96837.25
2022-12-31T07:38:24.760Z,96815.63
2022-12-31T07:41:09.271Z,96826.06
2022-12-31T07:44:11.785Z,96825.22
2022-12-31T07:47:00.162Z,96832.50
2022-12-31T07:49:29.823Z,96840.88
2022-12-31T07:51:56.977Z,96847.78
2022-12-31T07:54:23.886Z,96844.88
2022-12-31T07:56:51.585Z,96853.66
2022-12-31T08:00:01.192Z,96849.44
2022-12-31T08:02:40.079Z,96866.13
2022-12-31T08:05:14.526Z,96859.31
2022-12-31T08:08:18.710Z,96867.81
2022-12-31T08:11:14.392Z,96877.41
2022-12-31T08:13:42.525Z,96871.06
2022-12-31T08:16:13.827Z,96877.09
2022-12-31T08:18:41.134Z,96880.91
2022-12-31T08:21:49.110Z,96877.56
2022-12-31T08:24:39.606Z,96883.44
2022-12-31T08:27:24.336Z,96879.91
2022-12-31T08:30:15.951Z,96888.66
2022-12-31T08:33:03.370Z,96896.19
2022-12-31T08:36:06.617Z,96907.84
2022-12-31T08:39:03.794Z,96910.56
2022-12-31T08:41:44.403Z,96923.53
2022-12-31T08:44:35.661Z,96929.59
2022-12-31T08:47:25.573Z,96931.72
2022-12-31T08:49:53.540Z,96936.81
2022-12-31T08:52:25.372Z,96933.94
2022-12-31T08:54:53.008Z,96934.66
2022-12-31T08:57:35.195Z,96928.19
2022-12-31T09:00:11.506Z,96921.19
2022-12-31T09:02:51.787Z,96927.69
2022-12-31T09:05:56.972Z,96933.56
2022-12-31T09:09:06.135Z,96919.25
2022-12-31T09:12:05.632Z,96927.47
2022-12-31T09:14:43.575Z,96927.72
2022-12-31T09:17:49.629Z,96924.66
2022-12-31T09:20:44.362Z,96933.47
2022-12-31T09:23:13.061Z,96931.25
2022-12-31T09:25:53.409Z,96927.31
2022-12-31T09:28:43.241Z,96936.34
2022-12-31T09:31:53.066Z,96942.84
2022-12-31T09:34:28.870Z,96942.47
2022-12-31T09:37:07.284Z,96949.88
2022-12-31T09:39:44.136Z,96949.28
2022-12-31T09:42:44.122Z,96952.44
2022-12-31T09:45:26.060Z,96949.72
2022-12-31T09:48:59.260Z,96941.81
2022-12-31T09:51:55.685Z,96946.25
2022-12-31T09:54:22.378Z,96952.84
2022-12-31T09:57:32.277Z,96949.28
2022-12-31T10:00:30.199Z,96944.50
2022-12-31T10:02:59.728Z,96947.09
2022-12-31T10:05:51.426Z,96939.78
2022-12-31T10:08:51.960Z,96947.78
2022-12-31T10:11:45.211Z,96940.69
2022-12-31T10:15:11.462Z,96940.91
2022-12-31T10:18:03.842Z,96939.09
2022-12-31T10:21:11.374Z,96939.13
2022-12-31T10:23:54.581Z,96945.00
2022-12-31T10:26:53.248Z,96952.78
2022-12-31T10:29:42.870Z,96943.19
2022-12-31T10:32:41.844Z,96934.50
2022-12-31T10:35:36.365Z,96924.47
2022-12-31T10:38:43.674Z,96923.88
2022-12-31T10:41:18.910Z,96927.25
2022-12-31T10:44:16.560Z,96919.50
2022-12-31T10:47:20.100Z,96927.25
2022-12-31T10:50:34.535Z,96919.75
2022-12-31T10:53:41.611Z,96915.31
2022-12-31T10:56:48.189Z,96911.31
2022-12-31T10:59:37.364Z,96911.03
2022-12-31T11:02:32.122Z,96898.63
2022-12-31T11:05:44.989Z,96902.09
2022-12-31T11:08:33.172Z,96910.41
2022-12-31T11:12:09.192Z,96911.97
2022-12-31T11:15:13.362Z,96917.97
2022-12-31T11:18:21.027Z,96908.88
2022-12-31T11:21:36.299Z,96914.88
2022-12-31T11:25:00.299Z,96910.53
2022-12-31T11:28:01.128Z,96896.09
2022-12-31T11:31:12.938Z,96901.78
2022-12-31T11:34:19.034Z,96905.19
2022-12-31T11:37:43.907Z,96897.59
2022-12-31T11:41:06.567Z,96889.31
2022-12-31T11:43:46.642Z,96884.34
2022-12-31T11:46:48.860Z,96874.19
2022-12-31T11:49:33.757Z,96876.88
2022-12-31T11:52:21.157Z,96881.19
2022-12-31T11:55:14.225Z,96868.47
2022-12-31T11:57:46.766Z,96867.03
2022-12-31T12:00:25.469Z,96870.75
2022-12-31T12:02:58.097Z,96868.72
2022-12-31T12:05:26.203Z,96873.59
2022-12-31T12:07:54.292Z,96861.13
2022-12-31T12:10:36.472Z,96867.44
2022-12-31T12:13:23.737Z,96858.00
2022-12-31T12:15:55.429Z,96858.25
2022-12-31T12:19:11.051Z,96861.78
2022-12-31T12:21:49.132Z,96856.81
2022-12-31T12:24:29.051Z,96853.88
2022-12-31T12:26:57.370Z,96862.31
2022-12-31T12:29:29.986Z,96854.47
2022-12-31T12:32:05.306Z,96852.63
2022-12-31T12:34:45.870Z,96848.44
2022-12-31T12:37:26.320Z,96846.97
2022-12-31T12:40:18.354Z,96849.19
2022-12-31T12:42:51.189Z,96835.44
2022-12-31T12:45:20.929Z,96830.50
2022-12-31T12:47:56.397Z,96837.94
2022-12-31T12:50:26.808Z,96835.69
2022-12-31T12:53:25.696Z,96835.34
2022-12-31T12:56:33.744Z,96840.88
2022-12-31T12:59:30.301Z,96841.31
2022-12-31T13:02:17.129Z,96848.03
2022-12-31T13:04:49.795Z,96853.88
2022-12-31T13:07:48.438Z,96844.31
2022-12-31T13:10:29.323Z,96844.31
2022-12-31T13:13:24.281Z,96827.78
2022-12-31T13:16:37.724Z,96822.78
2022-12-31T13:19:42.014Z,96829.72
2022-12-31T13:22:20.525Z,96834.09
2022-12-31T13:25:22.501Z,96834.16
2022-12-31T13:27:52.530Z,96838.72
2022-12-31T13:30:35.439Z,96822.59
2022-12-31T13:33:24.613Z,96822.13
2022-12-31T13:36:00.175Z,96827.59
2022-12-31T13:38:39.270Z,96820.06
2022-12-31T13:41:42.282Z,96812.53
2022-12-31T13:44:16.722Z,96812.94
2022-12-31T13:46:58.617Z,96813.13
2022-12-31T13:49:51.511Z,96813.97
2022-12-31T13:52:32.704Z,96812.38
2022-12-31T13:55:41.851Z,96808.81
2022-12-31T13:58:40.909Z,96807.56
2022-12-31T14:01:15.306Z,96818.47
2022-12-31T14:04:33.574Z,96819.13
2022-12-31T14:07:18.001Z,96818.28
2022-12-31T14:09:46.499Z,96812.19
2022-12-31T14:12:30.867Z,96814.09
2022-12-31T14:15:28.907Z,96813.47
2022-12-31T14:18:11.983Z,96821.63
2022-12-31T14:20:58.810Z,96823.97
2022-12-31T14:23:53.204Z,96824.63
2022-12-31T14:26:28.025Z,96824.63
2022-12-31T14:29:10.458Z,96827.78
2022-12-31T14:31:49.395Z,96815.66
2022-12-31T14:35:01.291Z,96816.09
2022-12-31T14:37:47.070Z,96828.03
2022-12-31T14:41:01.502Z,96818.03
2022-12-31T14:43:52.426Z,96822.84
2022-12-31T14:46:59.910Z,96829.13
2022-12-31T14:50:05.300Z,96832.72
2022-12-31T14:52:35.604Z,96821.44
2022-12-31T14:55:28.349Z,96829.97
2022-12-31T15:00:55.667Z,96837.31
2022-12-31T15:03:32.570Z,96840.88
2022-12-31T15:06:22.516Z,96837.53
2022-12-31T15:09:17.012Z,96830.25
2022-12-31T15:12:16.517Z,96832.13
2022-12-31T15:15:23.037Z,96841.72
2022-12-31T15:17:59.321Z,96839.00
2022-12-31T15:20:51.980Z,96829.63
2022-12-31T15:23:37.427Z,96834.84
2022-12-31T15:26:05.662Z,96836.69
2022-12-31T15:28:38.772Z,96838.59
2022-12-31T15:31:17.527Z,96842.13
2022-12-31T15:34:05.025Z,96840.63
2022-12-31T15:36:38.861Z,96833.72
2022-12-31T15:39:11.604Z,96835.38
2022-12-31T15:42:10.200Z,96832.47
2022-12-31T15:44:50.037Z,96837.88
2022-12-31T15:47:29.234Z,96845.59
2022-12-31T15:49:59.868Z,96852.25
2022-12-31T15:52:47.884Z,96856.19
2022-12-31T15:55:42.865Z,96851.56
2022-12-31T15:58:18.656Z,96856.16
2022-12-31T16:01:13.712Z,96854.66
2022-12-31T16:04:17.393Z,96857.34
2022-12-31T16:06:50.497Z,96851.72
2022-12-31T16:09:27.741Z,96853.94
2022-12-31T16:11:56.588Z,96852.50
2022-12-31T16:14:29.097Z,96856.81
2022-12-31T16:16:59.671Z,96848.66
2022-12-31T16:19:48.732Z,96855.47
2022-12-31T16:22:29.547Z,96872.53
2022-12-31T16:25:29.795Z,96865.44
2022-12-31T16:27:49.645Z,96860.81
2022-12-31T16:30:29.423Z,96867.22
2022-12-31T16:33:02.642Z,96873.06
2022-12-31T16:35:36.483Z,96869.91
2022-12-31T16:38:34.831Z,96870.22
2022-12-31T16:41:01.461Z,96866.09
2022-12-31T16:43:38.095Z,96872.69
2022-12-31T16:46:31.323Z,96870.78
2022-12-31T16:49:20.294Z,96874.91
2022-12-31T16:51:47.582Z,96874.50
2022-12-31T16:54:24.525Z,96872.38
2022-12-31T16:56:52.374Z,96871.56
2022-12-31T16:59:26.431Z,96871.94
2022-12-31T17:01:59.617Z,96872.13
2022-12-31T17:04:26.859Z,96878.41
2022-12-31T17:06:53.632Z,96885.69
2022-12-31T17:09:22.889Z,96877.94
2022-12-31T17:11:56.694Z,96886.47
2022-12-31T17:14:27.173Z,96887.50
2022-12-31T17:17:03.210Z,96893.56
2022-12-31T17:19:47.707Z,96894.53
2022-12-31T17:22:36.486Z,96895.56
2022-12-31T17:25:28.569Z,96898.44
2022-12-31T17:28:07.523Z,96894.97
2022-12-31T17:30:34.916Z,96895.63
2022-12-31T17:33:21.867Z,96882.88
2022-12-31T17:35:55.185Z,96895.81
2022-12-31T17:38:21.904Z,96888.97
2022-12-31T17:40:55.124Z,96890.19
2022-12-31T17:43:23.888Z,96901.47
2022-12-31T17:45:52.742Z,96892.53
2022-12-31T17:48:20.489Z,96896.06
2022-12-31T17:50:52.922Z,96897.09
2022-12-31T17:53:20.244Z,96895.22
2022-12-31T17:55:54.838Z,96896.44
2022-12-31T17:58:30.036Z,96887.69
2022-12-31T18:00:58.232Z,96895.63
2022-12-31T18:03:25.237Z,96890.41
2022-12-31T18:05:52.580Z,96891.44
2022-12-31T18:08:19.382Z,96894.97
2022-12-31T18:10:46.386Z,96896.03
2022-12-31T18:13:19.505Z,96893.88
2022-12-31T18:15:46.644Z,96896.41
2022-12-31T18:18:28.810Z,96895.25
2022-12-31T18:21:01.371Z,96887.13
2022-12-31T18:23:51.340Z,96894.16
2022-12-31T18:26:21.283Z,96891.41
2022-12-31T18:28:49.480Z,96893.97
2022-12-31T18:31:25.052Z,96899.78
2022-12-31T18:33:54.598Z,96904.16
2022-12-31T18:36:23.284Z,96902.50
2022-12-31T18:38:50.256Z,96906.03
2022-12-31T18:41:19.716Z,96913.72
2022-12-31T18:43:47.093Z,96918.91
2022-12-31T18:46:17.024Z,96919.31
2022-12-31T18:48:44.245Z,96916.28
2022-12-31T18:51:23.105Z,96914.88
2022-12-31T18:53:53.340Z,96916.53
2022-12-31T18:56:21.920Z,96919.00
2022-12-31T18:58:48.817Z,96916.66
2022-12-31T19:01:34.876Z,96913.44
2022-12-31T19:04:06.682Z,96915.31
2022-12-31T19:06:34.138Z,96919.22
2022-12-31T19:09:01.287Z,96919.81
2022-12-31T19:11:28.303Z,96915.59
2022-12-31T19:13:55.185Z,96917.84
2022-12-31T19:16:22.027Z,96922.97
2022-12-31T19:18:49.451Z,96916.47
2022-12-31T19:21:20.981Z,96915.75
2022-12-31T19:23:48.281Z,96915.91
2022-12-31T19:26:18.168Z,96915.00
2022-12-31T19:28:46.345Z,96919.13
2022-12-31T19:31:14.282Z,96925.94
2022-12-31T19:33:41.411Z,96929.00
2022-12-31T19:36:15.651Z,96928.22
2022-12-31T19:38:42.970Z,96932.81
2022-12-31T19:41:18.967Z,96935.75
2022-12-31T19:43:47.416Z,96929.06
2022-12-31T19:46:17.287Z,96935.22
2022-12-31T19:48:45.640Z,96925.13
2022-12-31T19:51:18.382Z,96947.50
2022-12-31T19:53:47.168Z,96942.66
2022-12-31T19:56:18.985Z,96940.88
2022-12-31T19:58:46.289Z,96942.25
2022-12-31T20:01:21.043Z,96939.81
2022-12-31T20:03:48.350Z,96925.84
2022-12-31T20:06:16.336Z,96931.94
2022-12-31T20:08:43.303Z,96933.34
2022-12-31T20:11:17.881Z,96929.03
2022-12-31T20:13:46.293Z,96934.63
2022-12-31T20:16:18.770Z,96937.00
2022-12-31T20:18:47.464Z,96935.34
2022-12-31T20:21:18.972Z,96943.78
2022-12-31T20:23:46.773Z,96935.69
2022-12-31T20:26:13.714Z,96945.00
2022-12-31T20:28:40.566Z,96938.75
2022-12-31T20:31:14.038Z,96945.53
2022-12-31T20:33:41.342Z,96952.41
2022-12-31T20:36:11.857Z,96949.22
2022-12-31T20:38:38.868Z,96945.69
2022-12-31T20:41:10.240Z,96942.69
2022-12-31T20:43:37.641Z,96938.31
2022-12-31T20:46:15.424Z,96938.84
2022-12-31T20:48:44.760Z,96955.88
2022-12-31T20:51:13.270Z,96955.88
2022-12-31T20:53:40.262Z,96949.81
2022-12-31T20:56:08.599Z,96952.50
2022-12-31T20:58:36.089Z,96947.97
2022-12-31T21:01:07.120Z,96945.44
2022-12-31T21:04:04.137Z,96951.03
2022-12-31T21:06:23.866Z,96944.97
2022-12-31T21:08:51.175Z,96952.56
2022-12-31T21:11:36.517Z,96948.38
2022-12-31T21:14:03.328Z,96948.09
2022-12-31T21:16:30.217Z,96956.69
2022-12-31T21:18:58.068Z,96960.94
2022-12-31T21:21:25.057Z,96963.53
2022-12-31T21:23:51.819Z,96962.34
2022-12-31T21:26:18.820Z,96955.00
2022-12-31T21:28:45.996Z,96959.22
2022-12-31T21:31:14.389Z,96971.53
2022-12-31T21:33:45.542Z,96974.97
2022-12-31T21:36:12.657Z,96973.63
2022-12-31T21:38:39.722Z,96977.69
2022-12-31T21:41:08.725Z,96974.63
2022-12-31T21:43:35.715Z,96984.78
2022-12-31T21:46:07.235Z,96983.44
2022-12-31T21:48:34.349Z,96982.59
2022-12-31T21:51:14.770Z,96981.41
2022-12-31T21:53:41.629Z,96980.25
2022-12-31T21:56:10.973Z,96972.50
2022-12-31T21:58:43.478Z,96970.13
2022-12-31T22:01:39.377Z,96982.28
2022-12-31T22:04:10.001Z,96987.47
2022-12-31T22:06:43.973Z,96984.97
2022-12-31T22:09:10.727Z,96985.97
2022-12-31T22:11:37.808Z,97000.44
2022-12-31T22:14:04.595Z,96988.00
2022-12-31T22:16:31.449Z,96995.91
2022-12-31T22:18:58.280Z,96992.38
2022-12-31T22:21:26.457Z,97001.28
2022-12-31T22:23:56.212Z,97001.28
2022-12-31T22:26:27.723Z,97008.34
2022-12-31T22:28:58.989Z,97000.78
2022-12-31T22:31:32.276Z,97000.78
2022-12-31T22:33:59.592Z,97005.84
2022-12-31T22:36:26.415Z,97004.00
2022-12-31T22:38:57.918Z,97012.91
2022-12-31T22:41:26.735Z,97010.06
2022-12-31T22:44:02.663Z,97020.84
2022-12-31T22:46:30.813Z,97025.22
2022-12-31T22:48:59.665Z,97022.84
2022-12-31T22:51:56.758Z,97028.09
2022-12-31T22:54:14.786Z,97027.09
2022-12-31T22:56:41.684Z,97029.59
2022-12-31T22:59:09.154Z,97032.28
2022-12-31T23:01:36.897Z,97038.50
2022-12-31T23:04:04.206Z,97044.09
2022-12-31T23:06:31.221Z,97042.22
2022-12-31T23:09:16.982Z,97037.84
2022-12-31T23:11:43.767Z,97033.63
2022-12-31T23:14:35.925Z,97041.38
2022-12-31T23:17:29.745Z,97041.19
2022-12-31T23:20:18.308Z,97044.25
2022-12-31T23:23:04.888Z,97034.47
2022-12-31T23:25:33.596Z,97032.13
2022-12-31T23:28:00.400Z,97029.44
2022-12-31T23:30:27.653Z,97028.56
2022-12-31T23:32:54.446Z,97035.81
2022-12-31T23:35:21.589Z,97038.50
2022-12-31T23:37:48.375Z,97037.66
2022-12-31T23:40:20.909Z,97034.13
2022-12-31T23:42:49.783Z,97045.94
2022-12-31T23:45:16.613Z,97052.34
2022-12-31T23:47:43.435Z,97045.25
2022-12-31T23:50:10.345Z,97054.34
2022-12-31T23:52:37.090Z,97049.81
2022-12-31T23:55:04.184Z,97045.44
2022-12-31T23:57:31.214Z,97053.50
2022-12-31T23:59:57.989Z,97051.84
